• Join FlightAware (Why Join?)
  • Login
  • US Flag 
09:39AM EDT


 

Airport Tracker/Info


-or-


 

Live Flight TrackerFlight Track Log ✈ SKW4664 ✈ 24-Jul-2013 ✈ KFSD - KMSP

Flight Track Log - Related Links

Times and Time Zones

All times are in EDT time to prevent confusion due to time zone crossing. See the SKW4664 flight status page for this flight to view local times or setup timezone preferences in your user account.

Time Position Orientation Groundspeed Altitude Reporting Facility
EDT Latitude Longitude Course Direction KTS MPH feet Rate Location/Type
11:59AM 43.6497 -96.6997 38° Northeast 198 228 5,500  Level Minneapolis Center
12:00PM 43.6989 -96.5983 56° Northeast 245 282 7,900 2,280 Climbing Minneapolis Center
12:01PM 43.7811 -96.3611 51° Northeast  Level FlightAware Approximate
12:01PM 43.7467 -96.5100 53° Northeast 270 311 10,300  Level Minneapolis Center
12:02PM 43.8523 -96.2348 53° Northeast  Level FlightAware Approximate
12:02PM 43.7958 -96.4183 53° Northeast 285 328 12,700  Level Minneapolis Center
12:03PM 43.9221 -96.1068 52° Northeast  Level FlightAware Approximate
12:03PM 43.8467 -96.3225 54° Northeast 302 348 14,800  Level Minneapolis Center
12:04PM 43.8989 -96.2233 54° Northeast 318 366 16,800 1,860 Climbing Minneapolis Center
12:05PM 43.9639 -96.1006 54° Northeast 331 381 18,700 1,680 Climbing Minneapolis Center
12:06PM 44.0192 -95.9964 54° Northeast 338 389 20,300 1,440 Climbing Minneapolis Center
12:07PM 44.0761 -95.8881 54° Northeast 350 403 21,700 1,260 Climbing Minneapolis Center
12:08PM 44.1344 -95.7767 54° Northeast 359 413 23,000 600 Climbing Minneapolis Center
12:09PM 44.1908 -95.6486 58° Northeast 392 451 23,000  Level Minneapolis Center
12:10PM 44.2517 -95.4692 65° Northeast 431 496 23,000  Level Minneapolis Center
12:11PM 44.3053 -95.3114 65° Northeast 448 516 23,000  Level Minneapolis Center
12:12PM 44.3611 -95.1483 64° Northeast 464 534 23,000  Level Minneapolis Center
12:14PM 44.4172 -94.9828 65° Northeast 472 543 23,000 -300 Level Minneapolis Center
12:15PM 44.4753 -94.8183 64° Northeast 474 545 22,500 -2,040 Descending Minneapolis Center
12:16PM 44.5372 -94.6303 65° Northeast 452 520 18,800 -3,060 Descending Minneapolis Center
12:17PM 44.5811 -94.4967 65° Northeast 431 496 16,200 -2,760 Descending Minneapolis Center
12:18PM 44.6292 -94.3511 65° Northeast 411 473 13,200 -2,520 Descending Minneapolis Center
12:19PM 44.6847 -94.1864 65° Northeast 383 441 11,000 -1,140 Descending Minneapolis Center
12:20PM 44.7406 -94.0633 57° Northeast 374 430 10,900 -420 Descending Minneapolis Center
12:21PM 44.7867 -93.9611 58° Northeast 303 349 10,200 -1,080 Descending Minneapolis Center
12:22PM 44.8303 -93.8675 57° Northeast 286 329 8,700 -1,500 Descending Minneapolis Center
12:23PM 44.8753 -93.7683 57° Northeast 299 344 7,200 -840 Descending Minneapolis Center
12:24PM 44.9189 -93.6714 58° Northeast 293 337 7,000 -840 Descending Minneapolis Center
12:25PM 44.9614 -93.5767 58° Northeast 285 328 5,500 -1,500 Descending Minneapolis Center
12:26PM 44.9583 -93.4544 92° East 256 295 4,000 -1,500 Descending Minneapolis Center